Time;durP1;ratioP1;P1;durP2;ratioP2;P2;SDS_P1;SDS_P2;PMS_P1;PMS_P2;Temp;Humidity;BMP_temperature;BMP_pressure;BME280_temperature;BME280_humidity;BME280_pressure;Samples;Min_cycle;Max_cycle;Signal;HPM_P1;HPM_P2
2022/09/05 00:01:11;;;;;;;;;;;24.90;45.70;;;;;;1559542;75;724;-66
2022/09/05 00:03:27;;;;;;;;;;;24.90;45.70;;;;;;1563446;75;1864;-66
2022/09/05 00:05:48;;;;;;;;;;;24.90;45.70;;;;;;1568761;74;1948;-66
2022/09/05 00:07:55;;;;;;;;;;;24.90;45.70;;;;;;1573844;74;850;-67
2022/09/05 00:10:04;;;;;;;;;;;24.90;45.70;;;;;;1565590;74;776;-67
2022/09/05 00:12:07;;;;;;;;;;;24.80;45.80;;;;;;1566298;74;1554;-67
2022/09/05 00:14:10;;;;;;;;;;;24.90;45.80;;;;;;1565524;74;781;-65
2022/09/05 00:16:30;;;;;;;;;;;24.90;45.80;;;;;;1561633;74;1664;-66
2022/09/05 00:18:45;;;;;;;;;;;24.80;45.80;;;;;;1574552;74;763;-66
2022/09/05 00:21:06;;;;;;;;;;;24.90;45.90;;;;;;1565239;75;768;-66
2022/09/05 00:23:18;;;;;;;;;;;24.90;45.90;;;;;;1563355;75;1134;-66
2022/09/05 00:25:28;;;;;;;;;;;24.90;45.90;;;;;;1563019;74;2200;-66
2022/09/05 00:27:48;;;;;;;;;;;24.80;45.80;;;;;;1563850;75;1952;-66
2022/09/05 00:30:04;;;;;;;;;;;24.80;45.90;;;;;;1567475;75;811;-66
2022/09/05 00:32:10;;;;;;;;;;;24.80;45.90;;;;;;1565295;74;1135;-66
2022/09/05 00:34:16;;;;;;;;;;;24.90;46.00;;;;;;1563581;74;2336;-66
2022/09/05 00:36:26;;;;;;;;;;;24.80;45.90;;;;;;1575492;74;763;-66
2022/09/05 00:38:28;;;;;;;;;;;24.80;46.00;;;;;;1545822;74;1523;-66
2022/09/05 00:40:33;;;;;;;;;;;24.80;45.90;;;;;;1566840;74;1570;-66
2022/09/05 00:42:34;;;;;;;;;;;24.80;45.90;;;;;;1564461;75;1136;-66
2022/09/05 00:44:38;;;;;;;;;;;24.80;46.00;;;;;;1538998;76;1940;-65
2022/09/05 00:46:44;;;;;;;;;;;24.80;46.00;;;;;;1559745;75;1125;-66
2022/09/05 00:49:04;;;;;;;;;;;24.80;46.00;;;;;;1557123;76;728;-65
2022/09/05 00:51:16;;;;;;;;;;;24.90;46.10;;;;;;1562432;75;806;-65
2022/09/05 00:53:20;;;;;;;;;;;24.80;46.00;;;;;;1567468;73;1226;-65
2022/09/05 00:55:29;;;;;;;;;;;24.90;46.00;;;;;;1560494;75;1866;-65
2022/09/05 00:57:49;;;;;;;;;;;24.80;45.90;;;;;;1522156;76;991;-65
2022/09/05 00:59:52;;;;;;;;;;;24.80;46.00;;;;;;1562045;75;695;-65
2022/09/05 01:02:12;;;;;;;;;;;24.80;45.90;;;;;;1576431;73;1904;-65
2022/09/05 01:04:16;;;;;;;;;;;24.80;45.80;;;;;;1569348;75;1907;-67
2022/09/05 01:06:22;;;;;;;;;;;24.80;45.90;;;;;;1553081;75;1256;-65
2022/09/05 01:08:32;;;;;;;;;;;24.80;45.90;;;;;;1558480;75;1956;-65
2022/09/05 01:10:54;;;;;;;;;;;24.80;45.80;;;;;;1567391;75;1868;-65
2022/09/05 01:13:04;;;;;;;;;;;24.80;45.80;;;;;;1559234;75;2083;-65
2022/09/05 01:15:19;;;;;;;;;;;24.80;45.80;;;;;;1562092;75;1573;-65
2022/09/05 01:17:26;;;;;;;;;;;24.80;45.80;;;;;;1569622;75;1930;-66
2022/09/05 01:19:38;;;;;;;;;;;24.80;45.80;;;;;;1556830;76;961;-65
2022/09/05 01:21:57;;;;;;;;;;;24.80;45.80;;;;;;1555897;75;1149;-65
2022/09/05 01:24:06;;;;;;;;;;;24.80;45.70;;;;;;1558029;75;713;-65
2022/09/05 01:26:28;;;;;;;;;;;24.80;45.70;;;;;;1563287;75;730;-65
2022/09/05 01:28:50;;;;;;;;;;;24.80;45.70;;;;;;1565003;75;737;-65
2022/09/05 01:30:54;;;;;;;;;;;24.80;45.70;;;;;;1557091;75;774;-65
2022/09/05 01:33:14;;;;;;;;;;;24.80;45.70;;;;;;1566435;73;1076;-64
2022/09/05 01:35:30;;;;;;;;;;;24.80;45.70;;;;;;1568859;75;717;-62
2022/09/05 01:37:36;;;;;;;;;;;24.80;45.70;;;;;;1572058;75;1576;-64
2022/09/05 01:39:54;;;;;;;;;;;24.80;45.70;;;;;;1566389;75;1571;-64
2022/09/05 01:42:15;;;;;;;;;;;24.80;45.70;;;;;;1562453;75;1134;-65
2022/09/05 01:44:34;;;;;;;;;;;24.80;45.70;;;;;;1551622;76;1942;-65
2022/09/05 01:46:41;;;;;;;;;;;24.80;45.70;;;;;;1536971;76;682;-64
2022/09/05 01:48:51;;;;;;;;;;;24.80;45.70;;;;;;1533614;76;2056;-64
2022/09/05 01:51:03;;;;;;;;;;;24.70;45.70;;;;;;1538671;76;1494;-64
2022/09/05 01:53:07;;;;;;;;;;;24.80;45.70;;;;;;1524968;76;1925;-65
2022/09/05 01:55:13;;;;;;;;;;;24.70;45.70;;;;;;1531227;76;2073;-65
2022/09/05 01:57:17;;;;;;;;;;;24.80;45.70;;;;;;1498725;76;925;-65
2022/09/05 01:59:20;;;;;;;;;;;24.80;45.70;;;;;;1547089;76;1904;-65
2022/09/05 02:01:30;;;;;;;;;;;24.80;45.60;;;;;;1536758;76;747;-65
2022/09/05 02:03:48;;;;;;;;;;;24.80;45.60;;;;;;1541588;76;2138;-65
2022/09/05 02:05:52;;;;;;;;;;;24.80;45.60;;;;;;1537848;76;1946;-64
2022/09/05 02:07:58;;;;;;;;;;;24.80;45.60;;;;;;1537532;76;747;-65
2022/09/05 02:10:05;;;;;;;;;;;24.80;45.60;;;;;;1537605;76;708;-65
2022/09/05 02:12:09;;;;;;;;;;;24.80;45.70;;;;;;1487148;76;1154;-64
2022/09/05 02:14:12;;;;;;;;;;;24.80;45.80;;;;;;1539634;76;1808;-64
2022/09/05 02:16:18;;;;;;;;;;;24.80;45.70;;;;;;1537955;76;1867;-64
2022/09/05 02:18:22;;;;;;;;;;;24.80;45.70;;;;;;1533729;76;1535;-65
2022/09/05 02:20:25;;;;;;;;;;;24.80;45.60;;;;;;1534691;76;1834;-65
2022/09/05 02:22:28;;;;;;;;;;;24.80;45.70;;;;;;1545247;76;1108;-66
2022/09/05 02:24:34;;;;;;;;;;;24.80;45.60;;;;;;1545247;76;1937;-65
2022/09/05 02:26:38;;;;;;;;;;;24.80;45.60;;;;;;1541156;76;739;-65
2022/09/05 02:28:41;;;;;;;;;;;24.80;45.50;;;;;;1541702;76;1896;-65
2022/09/05 02:30:44;;;;;;;;;;;24.80;45.40;;;;;;1534560;76;733;-65
2022/09/05 02:33:03;;;;;;;;;;;24.80;45.40;;;;;;1522129;76;1621;-65
2022/09/05 02:35:06;;;;;;;;;;;24.80;45.40;;;;;;1527051;76;799;-65
2022/09/05 02:37:13;;;;;;;;;;;24.80;45.30;;;;;;1538448;76;730;-65
2022/09/05 02:39:32;;;;;;;;;;;24.80;45.40;;;;;;1532849;76;816;-65
2022/09/05 02:41:41;;;;;;;;;;;24.80;45.40;;;;;;1525752;76;1915;-65
2022/09/05 02:43:51;;;;;;;;;;;24.80;45.40;;;;;;1533160;76;822;-66
2022/09/05 02:45:57;;;;;;;;;;;24.80;45.50;;;;;;1575739;74;1930;-65
2022/09/05 02:48:06;;;;;;;;;;;24.80;45.20;;;;;;1575861;74;1692;-67
2022/09/05 02:50:10;;;;;;;;;;;24.90;45.10;;;;;;1578581;74;770;-65
2022/09/05 02:52:13;;;;;;;;;;;24.80;45.30;;;;;;1571059;74;1145;-66
2022/09/05 02:54:18;;;;;;;;;;;24.90;45.40;;;;;;1572906;74;675;-66
2022/09/05 02:56:38;;;;;;;;;;;24.90;45.40;;;;;;1578220;74;1814;-65
2022/09/05 02:58:50;;;;;;;;;;;24.90;45.20;;;;;;1572283;74;797;-65
2022/09/05 03:01:08;;;;;;;;;;;25.00;45.20;;;;;;1574044;74;2194;-66
2022/09/05 03:03:11;;;;;;;;;;;24.90;45.20;;;;;;1577728;74;1176;-65
2022/09/05 03:05:30;;;;;;;;;;;24.90;45.30;;;;;;1576346;74;1933;-65
2022/09/05 03:07:50;;;;;;;;;;;24.90;45.40;;;;;;1576449;74;704;-65
2022/09/05 03:09:54;;;;;;;;;;;24.90;45.30;;;;;;1557035;74;701;-65
2022/09/05 03:12:13;;;;;;;;;;;24.90;45.40;;;;;;1574378;74;1150;-66
2022/09/05 03:14:33;;;;;;;;;;;24.80;45.30;;;;;;1573190;74;1920;-65
2022/09/05 03:16:39;;;;;;;;;;;24.80;45.20;;;;;;1570149;75;749;-65
2022/09/05 03:18:58;;;;;;;;;;;24.80;45.00;;;;;;1572054;74;758;-65
2022/09/05 03:21:10;;;;;;;;;;;24.90;45.00;;;;;;1570856;74;719;-65
2022/09/05 03:23:19;;;;;;;;;;;24.80;45.00;;;;;;1581857;73;1602;-66
2022/09/05 03:25:38;;;;;;;;;;;24.80;44.90;;;;;;1572160;74;2315;-65
2022/09/05 03:27:41;;;;;;;;;;;24.80;44.90;;;;;;1555707;74;1803;-65
2022/09/05 03:29:57;;;;;;;;;;;24.90;44.90;;;;;;1572038;74;1686;-66
2022/09/05 03:32:06;;;;;;;;;;;24.90;45.00;;;;;;1572270;74;1835;-65
2022/09/05 03:34:26;;;;;;;;;;;24.80;44.80;;;;;;1578060;74;1931;-65
2022/09/05 03:36:29;;;;;;;;;;;24.90;45.00;;;;;;1569638;74;579;-64
2022/09/05 03:38:33;;;;;;;;;;;24.90;45.00;;;;;;1556636;74;1684;-65
2022/09/05 03:40:40;;;;;;;;;;;24.80;44.70;;;;;;1572684;74;768;-65
2022/09/05 03:42:44;;;;;;;;;;;24.80;44.80;;;;;;1569902;74;1507;-65
2022/09/05 03:45:04;;;;;;;;;;;24.90;44.80;;;;;;1589162;74;1921;-64
2022/09/05 03:47:24;;;;;;;;;;;24.80;44.80;;;;;;1558891;74;801;-64
2022/09/05 03:49:31;;;;;;;;;;;24.80;44.90;;;;;;1560825;75;832;-65
2022/09/05 03:51:49;;;;;;;;;;;24.90;45.00;;;;;;1565024;73;1161;-64
2022/09/05 03:53:59;;;;;;;;;;;24.90;44.90;;;;;;1562784;74;1705;-65
2022/09/05 03:56:08;;;;;;;;;;;24.80;44.60;;;;;;1527115;76;1159;-65
2022/09/05 03:58:15;;;;;;;;;;;24.80;44.70;;;;;;1510940;75;1665;-64
2022/09/05 04:00:23;;;;;;;;;;;24.80;44.90;;;;;;1559547;74;1894;-65
2022/09/05 04:02:26;;;;;;;;;;;24.80;44.80;;;;;;1571010;74;1181;-64
2022/09/05 04:04:33;;;;;;;;;;;24.90;44.70;;;;;;1559801;74;715;-65
2022/09/05 04:06:36;;;;;;;;;;;24.90;44.60;;;;;;1561454;74;1934;-65
2022/09/05 04:08:40;;;;;;;;;;;24.80;44.30;;;;;;1568598;74;790;-67
2022/09/05 04:10:44;;;;;;;;;;;24.90;44.40;;;;;;1563931;74;1580;-65
2022/09/05 04:12:47;;;;;;;;;;;24.90;44.40;;;;;;1577233;74;1086;-65
2022/09/05 04:14:53;;;;;;;;;;;25.00;44.40;;;;;;1558012;74;618;-65
2022/09/05 04:17:03;;;;;;;;;;;24.90;44.20;;;;;;1562221;74;687;-65
2022/09/05 04:19:18;;;;;;;;;;;25.00;44.20;;;;;;1563156;74;801;-65
2022/09/05 04:21:22;;;;;;;;;;;24.90;44.10;;;;;;1555119;74;1903;-65
2022/09/05 04:23:38;;;;;;;;;;;24.90;44.00;;;;;;1557010;74;1204;-65
2022/09/05 04:25:58;;;;;;;;;;;24.90;44.00;;;;;;1556988;74;1942;-64
2022/09/05 04:28:04;;;;;;;;;;;24.90;44.10;;;;;;1559224;74;685;-64
2022/09/05 04:30:10;;;;;;;;;;;25.00;44.00;;;;;;1559985;74;1843;-65
2022/09/05 04:32:17;;;;;;;;;;;24.80;43.90;;;;;;1567656;74;1155;-65
2022/09/05 04:34:26;;;;;;;;;;;24.90;44.10;;;;;;1564911;75;1074;-65
2022/09/05 04:36:29;;;;;;;;;;;24.90;44.00;;;;;;1560673;74;902;-64
2022/09/05 04:38:33;;;;;;;;;;;24.90;44.10;;;;;;1565789;74;817;-65
2022/09/05 04:40:53;;;;;;;;;;;24.90;44.00;;;;;;1563248;75;1792;-65
2022/09/05 04:42:56;;;;;;;;;;;24.90;44.20;;;;;;1549376;74;2047;-68
2022/09/05 04:45:00;;;;;;;;;;;24.80;44.00;;;;;;1543986;76;738;-67
2022/09/05 04:47:06;;;;;;;;;;;24.90;44.10;;;;;;1533683;76;1947;-69
2022/09/05 04:49:12;;;;;;;;;;;24.90;44.10;;;;;;1529757;77;1094;-68
2022/09/05 04:51:32;;;;;;;;;;;24.80;43.90;;;;;;1537960;76;1578;-69
2022/09/05 04:53:54;;;;;;;;;;;24.80;43.90;;;;;;1507887;77;1516;-68
2022/09/05 04:55:56;;;;;;;;;;;24.80;43.90;;;;;;1498980;78;1067;-68
2022/09/05 04:58:09;;;;;;;;;;;24.80;43.90;;;;;;1513264;78;754;-69
2022/09/05 05:00:14;;;;;;;;;;;24.80;44.20;;;;;;1513931;78;681;-68
2022/09/05 05:02:18;;;;;;;;;;;24.90;44.30;;;;;;1490294;78;1192;-69
2022/09/05 05:04:21;;;;;;;;;;;24.90;44.20;;;;;;1509018;78;831;-69
2022/09/05 05:06:25;;;;;;;;;;;24.90;44.10;;;;;;1511509;78;1933;-68
2022/09/05 05:08:29;;;;;;;;;;;25.00;44.00;;;;;;1553070;75;1558;-68
2022/09/05 05:10:32;;;;;;;;;;;24.90;44.00;;;;;;1553012;75;791;-67
2022/09/05 05:12:39;;;;;;;;;;;24.90;44.20;;;;;;1558720;75;1129;-69
2022/09/05 05:14:42;;;;;;;;;;;25.00;44.00;;;;;;1556928;75;1869;-69
2022/09/05 05:16:46;;;;;;;;;;;24.90;44.00;;;;;;1538190;75;1808;-65
2022/09/05 05:18:51;;;;;;;;;;;25.00;44.00;;;;;;1543831;75;778;-68
2022/09/05 05:21:03;;;;;;;;;;;24.90;43.90;;;;;;1553437;75;1551;-68
2022/09/05 05:23:07;;;;;;;;;;;25.00;44.00;;;;;;1533060;75;1135;-69
2022/09/05 05:25:08;;;;;;;;;;;25.00;44.10;;;;;;1536734;75;1560;-68
2022/09/05 05:27:11;;;;;;;;;;;24.90;44.20;;;;;;1548108;75;1947;-69
2022/09/05 05:29:32;;;;;;;;;;;25.00;44.30;;;;;;1546240;75;722;-68
2022/09/05 05:31:35;;;;;;;;;;;25.00;44.40;;;;;;1550698;75;678;-69
2022/09/05 05:33:37;;;;;;;;;;;24.90;44.40;;;;;;1543508;75;1127;-66
2022/09/05 05:35:39;;;;;;;;;;;25.00;45.00;;;;;;1536398;75;1556;-68
2022/09/05 05:37:41;;;;;;;;;;;25.00;44.50;;;;;;1534762;75;677;-66
2022/09/05 05:39:44;;;;;;;;;;;25.00;44.40;;;;;;1542213;75;758;-67
2022/09/05 05:41:55;;;;;;;;;;;25.00;44.30;;;;;;1545281;75;723;-63
2022/09/05 05:43:58;;;;;;;;;;;25.00;44.40;;;;;;1548655;75;717;-67
2022/09/05 05:45:59;;;;;;;;;;;25.00;44.40;;;;;;1556173;75;1928;-67
2022/09/05 05:48:03;;;;;;;;;;;25.00;44.60;;;;;;1562301;75;703;-68
2022/09/05 05:50:09;;;;;;;;;;;25.10;44.50;;;;;;1554095;75;1749;-67
2022/09/05 05:52:28;;;;;;;;;;;25.20;44.70;;;;;;1554984;75;1136;-66
2022/09/05 05:54:44;;;;;;;;;;;25.10;45.00;;;;;;1553586;75;1071;-67
2022/09/05 05:56:56;;;;;;;;;;;25.20;45.20;;;;;;1553290;75;769;-68
2022/09/05 05:59:00;;;;;;;;;;;25.10;45.10;;;;;;1555897;75;1568;-67
2022/09/05 06:01:20;;;;;;;;;;;25.10;45.30;;;;;;1572874;74;940;-67
2022/09/05 06:03:23;;;;;;;;;;;25.20;45.40;;;;;;1562986;75;1579;-68
2022/09/05 06:05:27;;;;;;;;;;;25.20;45.50;;;;;;1561303;75;753;-68
2022/09/05 06:07:44;;;;;;;;;;;25.30;45.50;;;;;;1560366;75;1915;-68
2022/09/05 06:09:54;;;;;;;;;;;25.30;45.30;;;;;;1554013;75;1927;-68
2022/09/05 06:12:05;;;;;;;;;;;25.30;44.80;;;;;;1556564;75;1148;-67
2022/09/05 06:14:12;;;;;;;;;;;25.40;44.80;;;;;;1555021;75;1529;-67
2022/09/05 06:16:15;;;;;;;;;;;25.30;44.40;;;;;;1561597;74;1766;-68
2022/09/05 06:18:23;;;;;;;;;;;25.30;44.20;;;;;;1567437;74;1903;-67
2022/09/05 06:20:46;;;;;;;;;;;25.30;44.40;;;;;;1558988;75;763;-67
2022/09/05 06:23:06;;;;;;;;;;;25.30;44.40;;;;;;1554502;75;1148;-68
2022/09/05 06:25:26;;;;;;;;;;;25.30;44.50;;;;;;1564006;75;768;-69
2022/09/05 06:27:46;;;;;;;;;;;25.20;44.50;;;;;;1556593;75;1935;-68
2022/09/05 06:29:54;;;;;;;;;;;25.20;44.80;;;;;;1558868;75;722;-66
2022/09/05 06:31:57;;;;;;;;;;;25.20;44.70;;;;;;1559837;75;1777;-67
2022/09/05 06:34:13;;;;;;;;;;;25.30;44.70;;;;;;1558915;75;737;-69
2022/09/05 06:36:17;;;;;;;;;;;25.20;44.70;;;;;;1563845;75;906;-68
2022/09/05 06:38:38;;;;;;;;;;;25.20;44.80;;;;;;1556809;75;1463;-68
2022/09/05 06:40:41;;;;;;;;;;;25.20;44.90;;;;;;1566306;75;648;-69
2022/09/05 06:43:02;;;;;;;;;;;25.10;45.00;;;;;;1556872;75;1152;-69
2022/09/05 06:45:24;;;;;;;;;;;25.20;45.10;;;;;;1558643;75;1086;-69
2022/09/05 06:47:26;;;;;;;;;;;25.10;45.20;;;;;;1508761;78;1929;-69
2022/09/05 06:49:32;;;;;;;;;;;25.10;45.40;;;;;;1499027;78;797;-70
2022/09/05 06:51:52;;;;;;;;;;;25.10;45.40;;;;;;1514152;78;1822;-68
2022/09/05 06:54:12;;;;;;;;;;;25.10;45.50;;;;;;1516037;78;1146;-70
2022/09/05 06:56:15;;;;;;;;;;;25.10;45.50;;;;;;1510487;78;749;-67
2022/09/05 06:58:34;;;;;;;;;;;25.20;45.50;;;;;;1507920;78;1559;-68
2022/09/05 07:00:47;;;;;;;;;;;25.10;45.50;;;;;;1519374;78;1527;-66
2022/09/05 07:02:50;;;;;;;;;;;25.10;45.60;;;;;;1519784;78;1158;-68
2022/09/05 07:05:03;;;;;;;;;;;25.30;45.70;;;;;;1512907;77;755;-69
2022/09/05 07:07:06;;;;;;;;;;;25.20;45.70;;;;;;1517094;78;1934;-68
2022/09/05 07:09:22;;;;;;;;;;;25.20;45.70;;;;;;1511451;78;828;-66
2022/09/05 07:11:25;;;;;;;;;;;25.30;45.60;;;;;;1511290;78;766;-66
2022/09/05 07:13:34;;;;;;;;;;;25.20;45.60;;;;;;1514933;78;1547;-69
2022/09/05 07:15:38;;;;;;;;;;;25.20;45.60;;;;;;1511031;77;1068;-68
2022/09/05 07:17:58;;;;;;;;;;;25.30;45.60;;;;;;1517379;78;713;-67
2022/09/05 07:20:00;;;;;;;;;;;25.30;45.60;;;;;;1519231;78;758;-69
2022/09/05 07:22:15;;;;;;;;;;;25.30;45.70;;;;;;1513921;78;1099;-69
2022/09/05 07:24:17;;;;;;;;;;;25.40;45.60;;;;;;1507248;78;1583;-69
2022/09/05 07:26:19;;;;;;;;;;;25.50;45.60;;;;;;1511198;78;1930;-68
2022/09/05 07:28:21;;;;;;;;;;;25.50;45.50;;;;;;1521500;78;1527;-68
2022/09/05 07:30:23;;;;;;;;;;;25.50;45.40;;;;;;1504461;78;846;-69
2022/09/05 07:32:25;;;;;;;;;;;25.50;45.30;;;;;;1530375;76;1161;-67
2022/09/05 07:34:31;;;;;;;;;;;25.70;45.20;;;;;;1499292;79;793;-69
2022/09/05 07:36:36;;;;;;;;;;;25.70;45.20;;;;;;1516507;78;990;-69
2022/09/05 07:38:38;;;;;;;;;;;25.70;45.00;;;;;;1513991;78;757;-68
2022/09/05 07:40:41;;;;;;;;;;;25.70;44.80;;;;;;1504663;78;663;-68
2022/09/05 07:42:44;;;;;;;;;;;25.80;44.80;;;;;;1511197;78;1837;-67
2022/09/05 07:44:48;;;;;;;;;;;25.80;44.60;;;;;;1510149;78;828;-68
2022/09/05 07:46:53;;;;;;;;;;;25.90;44.50;;;;;;1519187;77;1961;-68
2022/09/05 07:48:55;;;;;;;;;;;25.90;44.60;;;;;;1510141;78;1686;-68
2022/09/05 07:51:01;;;;;;;;;;;25.90;44.40;;;;;;1491185;79;1396;-62
2022/09/05 07:53:03;;;;;;;;;;;25.90;44.70;;;;;;1517559;78;1154;-67
2022/09/05 07:55:16;;;;;;;;;;;25.90;44.60;;;;;;1525499;78;656;-67
2022/09/05 07:57:21;;;;;;;;;;;25.90;45.20;;;;;;1522661;78;1622;-65
2022/09/05 07:59:24;;;;;;;;;;;25.70;44.90;;;;;;1526016;78;694;-67
2022/09/05 08:01:26;;;;;;;;;;;25.60;45.00;;;;;;1520518;78;734;-66
2022/09/05 08:03:31;;;;;;;;;;;25.60;45.20;;;;;;1517653;77;1194;-69
2022/09/05 08:05:38;;;;;;;;;;;25.70;45.20;;;;;;1517136;78;776;-66
2022/09/05 08:07:40;;;;;;;;;;;25.60;45.20;;;;;;1518330;77;1919;-67
2022/09/05 08:09:43;;;;;;;;;;;25.70;45.80;;;;;;1520857;77;1575;-66
2022/09/05 08:11:45;;;;;;;;;;;25.60;45.50;;;;;;1503835;77;724;-66
2022/09/05 08:13:49;;;;;;;;;;;25.60;45.80;;;;;;1515632;78;1076;-67
2022/09/05 08:15:52;;;;;;;;;;;25.70;45.70;;;;;;1515495;78;704;-66
2022/09/05 08:18:11;;;;;;;;;;;25.70;45.70;;;;;;1517921;77;746;-66
2022/09/05 08:20:15;;;;;;;;;;;25.70;45.80;;;;;;1516867;77;757;-66
2022/09/05 08:22:19;;;;;;;;;;;25.80;45.60;;;;;;1523431;77;1099;-66
2022/09/05 08:24:22;;;;;;;;;;;25.80;45.60;;;;;;1514381;77;1567;-66
2022/09/05 08:26:42;;;;;;;;;;;25.80;45.60;;;;;;1501484;78;1985;-66
2022/09/05 08:29:04;;;;;;;;;;;25.80;45.70;;;;;;1525593;78;773;-65
2022/09/05 08:31:07;;;;;;;;;;;25.80;45.60;;;;;;1495242;78;1164;-66
2022/09/05 08:33:13;;;;;;;;;;;25.90;45.50;;;;;;1489797;78;1781;-67
2022/09/05 08:35:22;;;;;;;;;;;25.80;45.60;;;;;;1491560;78;744;-66
2022/09/05 08:37:27;;;;;;;;;;;25.80;45.50;;;;;;1528264;77;864;-66
2022/09/05 08:39:30;;;;;;;;;;;25.80;45.20;;;;;;1506759;77;1653;-66
2022/09/05 08:41:40;;;;;;;;;;;25.70;45.00;;;;;;1528334;77;798;-66
2022/09/05 08:43:43;;;;;;;;;;;25.70;45.10;;;;;;1534244;76;1913;-66
2022/09/05 08:45:47;;;;;;;;;;;25.70;45.40;;;;;;1533715;76;1871;-66
2022/09/05 08:47:53;;;;;;;;;;;25.70;45.60;;;;;;1512742;78;1940;-67
2022/09/05 08:50:06;;;;;;;;;;;25.70;45.60;;;;;;1509947;78;787;-66
2022/09/05 08:52:21;;;;;;;;;;;25.80;45.50;;;;;;1507709;78;1862;-67
2022/09/05 08:54:37;;;;;;;;;;;25.70;45.20;;;;;;1511633;78;807;-67
2022/09/05 08:56:40;;;;;;;;;;;25.70;45.50;;;;;;1504775;78;743;-66
2022/09/05 08:58:58;;;;;;;;;;;25.80;45.60;;;;;;1510679;78;752;-66
2022/09/05 09:01:04;;;;;;;;;;;25.80;46.20;;;;;;1511145;78;734;-67
2022/09/05 09:03:11;;;;;;;;;;;25.70;45.80;;;;;;1515433;78;2035;-67
2022/09/05 09:05:14;;;;;;;;;;;25.70;45.90;;;;;;1471301;78;1138;-67
2022/09/05 09:07:30;;;;;;;;;;;25.70;46.20;;;;;;1515298;77;1936;-68
2022/09/05 09:09:33;;;;;;;;;;;25.70;46.10;;;;;;1510666;78;766;-67
2022/09/05 09:11:40;;;;;;;;;;;25.70;45.90;;;;;;1513834;78;1826;-66
2022/09/05 09:13:51;;;;;;;;;;;25.70;45.70;;;;;;1512040;78;1135;-67
2022/09/05 09:15:54;;;;;;;;;;;25.70;45.80;;;;;;1468774;78;1065;-66
2022/09/05 09:17:56;;;;;;;;;;;25.70;45.50;;;;;;1514083;77;1853;-66
2022/09/05 09:20:03;;;;;;;;;;;25.60;45.50;;;;;;1513345;78;1590;-66
2022/09/05 09:22:14;;;;;;;;;;;25.60;45.60;;;;;;1508960;78;1595;-67
2022/09/05 09:24:26;;;;;;;;;;;25.60;45.70;;;;;;1513677;78;843;-68
2022/09/05 09:26:36;;;;;;;;;;;25.60;45.80;;;;;;1513073;78;754;-67
2022/09/05 09:28:48;;;;;;;;;;;25.60;45.70;;;;;;1515298;78;683;-68
2022/09/05 09:30:51;;;;;;;;;;;25.60;45.70;;;;;;1513877;78;764;-68
2022/09/05 09:32:53;;;;;;;;;;;25.60;45.50;;;;;;1507866;78;1779;-67
2022/09/05 09:34:56;;;;;;;;;;;25.60;45.60;;;;;;1512929;78;1464;-68
2022/09/05 09:37:07;;;;;;;;;;;25.50;45.50;;;;;;1507001;78;643;-67
2022/09/05 09:39:10;;;;;;;;;;;25.60;45.70;;;;;;1513541;78;817;-68
2022/09/05 09:41:29;;;;;;;;;;;25.70;45.50;;;;;;1512585;78;1641;-67
2022/09/05 09:43:39;;;;;;;;;;;25.70;45.80;;;;;;1506026;78;1153;-68
2022/09/05 09:45:55;;;;;;;;;;;25.70;45.70;;;;;;1498241;78;1135;-67
2022/09/05 09:48:11;;;;;;;;;;;25.70;45.60;;;;;;1510576;78;1917;-66
2022/09/05 09:50:14;;;;;;;;;;;25.60;45.70;;;;;;1508309;78;752;-66
2022/09/05 09:52:21;;;;;;;;;;;25.60;45.50;;;;;;1513470;78;1821;-67
2022/09/05 09:54:41;;;;;;;;;;;25.60;45.60;;;;;;1509552;77;1727;-66
2022/09/05 09:57:01;;;;;;;;;;;25.60;45.80;;;;;;1507062;78;787;-68
2022/09/05 09:59:10;;;;;;;;;;;25.60;45.80;;;;;;1508102;78;783;-67
2022/09/05 10:01:17;;;;;;;;;;;25.60;45.80;;;;;;1506604;78;1905;-68
2022/09/05 10:03:21;;;;;;;;;;;25.50;46.10;;;;;;1508074;78;1601;-67
2022/09/05 10:05:41;;;;;;;;;;;25.60;45.90;;;;;;1513907;78;755;-67
2022/09/05 10:07:48;;;;;;;;;;;25.60;46.40;;;;;;1512088;78;1922;-68
2022/09/05 10:09:50;;;;;;;;;;;25.60;46.10;;;;;;1512023;77;1571;-67
2022/09/05 10:12:05;;;;;;;;;;;25.70;46.00;;;;;;1507020;78;1097;-68
2022/09/05 10:14:11;;;;;;;;;;;25.70;46.60;;;;;;1460314;78;1216;-68
2022/09/05 10:16:31;;;;;;;;;;;25.60;46.40;;;;;;1510461;78;1609;-67
2022/09/05 10:18:53;;;;;;;;;;;25.60;46.20;;;;;;1506856;78;715;-68
2022/09/05 10:20:56;;;;;;;;;;;25.60;46.00;;;;;;1510482;78;1414;-68
2022/09/05 10:23:03;;;;;;;;;;;25.80;45.60;;;;;;1516070;78;1934;-67
2022/09/05 10:25:09;;;;;;;;;;;25.80;45.60;;;;;;1515406;78;965;-67
2022/09/05 10:27:16;;;;;;;;;;;25.70;45.80;;;;;;1504955;78;1915;-67
2022/09/05 10:29:23;;;;;;;;;;;25.70;45.90;;;;;;1514644;78;759;-67
2022/09/05 10:31:43;;;;;;;;;;;25.70;46.10;;;;;;1506741;78;1539;-67
2022/09/05 10:33:50;;;;;;;;;;;25.70;46.00;;;;;;1509036;78;1150;-66
2022/09/05 10:35:52;;;;;;;;;;;25.70;45.90;;;;;;1512845;78;869;-67
2022/09/05 10:37:55;;;;;;;;;;;25.70;45.90;;;;;;1514078;78;768;-67
2022/09/05 10:39:57;;;;;;;;;;;25.80;45.70;;;;;;1510935;78;1830;-66
2022/09/05 10:42:05;;;;;;;;;;;25.80;45.50;;;;;;1483949;79;1286;-67
2022/09/05 10:44:10;;;;;;;;;;;25.80;45.70;;;;;;1521465;73;236964;-64
2022/09/05 10:46:27;;;;;;;;;;;25.80;45.70;;;;;;1532184;76;1738;-63
2022/09/05 10:48:33;;;;;;;;;;;25.70;45.80;;;;;;1542436;76;2118;-64
2022/09/05 10:50:46;;;;;;;;;;;25.80;45.80;;;;;;1545498;75;728;-64
2022/09/05 10:53:02;;;;;;;;;;;25.80;46.00;;;;;;1538156;75;1933;-63
2022/09/05 10:55:08;;;;;;;;;;;25.90;45.70;;;;;;1565289;74;1897;-64
2022/09/05 10:57:12;;;;;;;;;;;25.90;45.40;;;;;;1548558;75;756;-64
2022/09/05 10:59:30;;;;;;;;;;;25.80;45.60;;;;;;1566299;75;1547;-65
2022/09/05 11:01:34;;;;;;;;;;;25.80;45.30;;;;;;1548340;75;1272;-64
2022/09/05 11:03:46;;;;;;;;;;;25.90;45.70;;;;;;1555074;75;1119;-64
2022/09/05 11:05:50;;;;;;;;;;;25.80;45.50;;;;;;1531130;75;1634;-64
2022/09/05 11:08:01;;;;;;;;;;;25.90;45.20;;;;;;1563672;75;1954;-64
2022/09/05 11:10:16;;;;;;;;;;;25.90;45.10;;;;;;1547628;75;1627;-64
2022/09/05 11:12:36;;;;;;;;;;;26.00;45.60;;;;;;1551749;75;981;-64
2022/09/05 11:14:42;;;;;;;;;;;25.90;45.10;;;;;;1553523;75;1135;-67
2022/09/05 11:16:49;;;;;;;;;;;25.90;45.10;;;;;;1552884;75;2021;-65
2022/09/05 11:18:54;;;;;;;;;;;25.80;45.20;;;;;;1550408;75;769;-66
2022/09/05 11:20:59;;;;;;;;;;;25.90;45.30;;;;;;1548719;75;798;-64
2022/09/05 11:23:02;;;;;;;;;;;25.90;45.20;;;;;;1550785;75;1268;-65
2022/09/05 11:25:06;;;;;;;;;;;25.80;44.70;;;;;;1564361;75;636;-64
2022/09/05 11:27:27;;;;;;;;;;;25.80;44.60;;;;;;1558977;75;1942;-64
2022/09/05 11:29:37;;;;;;;;;;;25.80;45.20;;;;;;1565396;75;767;-63
2022/09/05 11:31:41;;;;;;;;;;;25.80;44.90;;;;;;1543826;75;788;-64
2022/09/05 11:33:44;;;;;;;;;;;25.70;44.60;;;;;;1554879;75;1134;-65
2022/09/05 11:35:47;;;;;;;;;;;25.80;44.70;;;;;;1554122;75;2163;-64
2022/09/05 11:38:00;;;;;;;;;;;25.80;44.50;;;;;;1543585;75;689;-65
2022/09/05 11:40:15;;;;;;;;;;;25.90;44.60;;;;;;1544234;75;780;-65
2022/09/05 11:42:28;;;;;;;;;;;25.90;44.20;;;;;;1521030;77;1576;-65
2022/09/05 11:44:33;;;;;;;;;;;25.90;44.50;;;;;;1517950;77;1112;-65
2022/09/05 11:46:40;;;;;;;;;;;25.90;44.20;;;;;;1553136;75;991;-65
2022/09/05 11:48:49;;;;;;;;;;;25.80;44.20;;;;;;1557299;75;1945;-65
2022/09/05 11:51:07;;;;;;;;;;;25.70;44.20;;;;;;1551588;76;631;-64
2022/09/05 11:53:20;;;;;;;;;;;25.70;43.20;;;;;;1549469;75;1562;-65
2022/09/05 11:55:40;;;;;;;;;;;25.70;44.40;;;;;;1563173;75;1371;-65
2022/09/05 11:57:52;;;;;;;;;;;25.80;44.10;;;;;;1566781;75;561;-65
2022/09/05 12:00:12;;;;;;;;;;;25.80;44.00;;;;;;1550867;75;1929;-63
2022/09/05 12:02:16;;;;;;;;;;;25.80;44.00;;;;;;1543989;75;763;-64
2022/09/05 12:04:34;;;;;;;;;;;25.80;43.90;;;;;;1540061;75;1842;-64
2022/09/05 12:06:56;;;;;;;;;;;25.90;43.70;;;;;;1571676;74;1894;-64
2022/09/05 12:09:16;;;;;;;;;;;25.90;43.70;;;;;;1556615;75;1923;-64
2022/09/05 12:11:32;;;;;;;;;;;25.90;43.60;;;;;;1554460;75;727;-64
2022/09/05 12:13:35;;;;;;;;;;;25.90;43.70;;;;;;1547057;75;1882;-64
2022/09/05 12:15:43;;;;;;;;;;;25.90;43.70;;;;;;1548680;75;850;-64
2022/09/05 12:17:51;;;;;;;;;;;25.90;43.60;;;;;;1548560;75;1820;-64
2022/09/05 12:20:01;;;;;;;;;;;25.90;43.60;;;;;;1545456;75;889;-64
2022/09/05 12:22:17;;;;;;;;;;;25.90;43.60;;;;;;1558559;75;2026;-64
2022/09/05 12:24:26;;;;;;;;;;;25.90;43.70;;;;;;1563970;75;1509;-64
2022/09/05 12:26:30;;;;;;;;;;;25.90;43.60;;;;;;1556272;75;1845;-64
2022/09/05 12:28:32;;;;;;;;;;;25.80;43.60;;;;;;1549960;76;1947;-64
2022/09/05 12:30:41;;;;;;;;;;;25.80;43.70;;;;;;1551030;75;731;-64
2022/09/05 12:32:52;;;;;;;;;;;25.80;43.80;;;;;;1544159;75;1562;-64
2022/09/05 12:34:57;;;;;;;;;;;25.80;43.80;;;;;;1555455;75;725;-64
2022/09/05 12:36:58;;;;;;;;;;;25.90;43.60;;;;;;1510870;77;1547;-64
2022/09/05 12:39:19;;;;;;;;;;;25.80;43.60;;;;;;1550451;76;752;-64
2022/09/05 12:41:21;;;;;;;;;;;25.80;43.60;;;;;;1528974;76;732;-64
2022/09/05 12:43:25;;;;;;;;;;;25.90;43.40;;;;;;1531405;76;1139;-64
2022/09/05 12:45:46;;;;;;;;;;;25.80;43.40;;;;;;1522505;76;815;-64
2022/09/05 12:48:06;;;;;;;;;;;25.80;43.50;;;;;;1527550;76;1901;-64